Flight Track Log - Related Links

Times and Time Zones

All times are in EDT time to prevent confusion due to time zone crossing. See the RPA3496 flight status page for this flight to view local times or setup timezone preferences in your user account.

Time Position Orientation Groundspeed Altitude Reporting Facility
EDT Latitude Longitude Course Direction KTS MPH feet Rate Location/Type
Thu 05:14:07 PM 40.7333 -73.8000 269° West 214 246 2,200  Level New York TRACON
Thu 05:15:07 PM 40.7833 -73.7500 37° Northeast 248 285 4,300 2,350 Climbing New York TRACON
Thu 05:16:07 PM 40.8333 -73.7667 346° North 273 314 6,900 2,750 Climbing New York TRACON
Thu 05:17:07 PM 40.8833 -73.8500 308° West 261 300 9,800 2,400 Climbing New York TRACON
Thu 05:18:07 PM 40.9000 -73.9500 282° West 286 329 11,700 2,000 Climbing New York TRACON
Thu 05:19:00 PM 40.7616 -74.6303 269° West  Level Estimated
Thu 05:19:07 PM 40.9000 -74.0500 270° West 301 346 13,800  Level New York TRACON
Thu 05:20:07 PM 40.9167 -74.1667 281° West 315 362 15,000 600 Climbing New York TRACON
Thu 05:21:07 PM 40.9167 -74.2833 270° West 313 360 15,000 500 Level New York TRACON
Thu 05:22:07 PM 40.9167 -74.4000 270° West 319 367 16,000 1,000 Climbing New York TRACON
Thu 05:23:07 PM 40.9000 -74.5167 259° West 322 371 17,000 500 Climbing New York TRACON
Thu 05:24:07 PM 40.9000 -74.6333 270° West 306 352 17,000  Level New York TRACON
Thu 05:25:07 PM 40.8833 -74.7333 258° West 323 372 17,000  Level New York TRACON
Thu 05:26:26 PM 40.8567 -74.8836 257° West 317 365 17,000  Level New York Center
Thu 05:27:27 PM 40.8317 -74.9972 254° West 317 365 17,000 950 Level New York Center
Thu 05:28:26 PM 40.8094 -75.1000 254° West 317 365 18,900 1,916 Climbing New York Center
Thu 05:29:26 PM 40.7878 -75.2303 258° West 323 372 20,800 1,884 Climbing New York Center
Thu 05:30:27 PM 40.7706 -75.3581 260° West 347 399 22,700 1,800 Climbing New York Center
Thu 05:31:26 PM 40.7303 -75.4811 247° West 357 411 24,400 1,636 Climbing New York Center
Thu 05:32:28 PM 40.6833 -75.6067 244° Southwest 369 425 26,000 1,475 Climbing New York Center
Thu 05:33:28 PM 40.6364 -75.7347 244° Southwest 376 433 27,400 1,008 Climbing New York Center
Thu 05:34:27 PM 40.5872 -75.8622 243° Southwest 381 438 28,000 300 Climbing New York Center
Thu 05:35:28 PM 40.5358 -75.9922 243° Southwest 392 451 28,000  Level New York Center
Thu 05:36:28 PM 40.4839 -76.1247 243° Southwest 404 465 28,000  Level New York Center
Thu 05:37:28 PM 40.4339 -76.2600 244° Southwest 409 471 28,000  Level New York Center
Thu 05:38:28 PM 40.3836 -76.3978 244° Southwest 415 478 28,000  Level New York Center
Thu 05:39:27 PM 40.3478 -76.5364 251° West 410 472 28,000  Level New York Center
Thu 05:40:28 PM 40.3094 -76.6803 251° West 410 472 28,000  Level New York Center
Thu 05:41:27 PM 40.2731 -76.8214 251° West 415 478 28,000  Level New York Center
Thu 05:42:28 PM 40.2367 -76.9622 251° West 415 478 28,000 -400 Level New York Center
Thu 05:43:27 PM 40.1978 -77.1056 250° West 420 483 27,200 -1,000 Descending New York Center
Thu 05:44:28 PM 40.1606 -77.2517 252° West 420 483 26,000 -756 Descending New York Center
Thu 05:45:26 PM 40.1233 -77.4003 252° West 420 483 25,700 -1,143 Descending New York Center
Thu 05:46:13 PM 40.0972 -77.4925 250° West 431 496 24,000 -2,037 Descending Cleveland Center
Thu 05:47:15 PM 40.0511 -77.6653 251° West 424 488 22,000 -968 Descending Cleveland Center
Thu 05:48:17 PM 40.0144 -77.8019 251° West 407 468 22,000  Level Cleveland Center
Thu 05:49:19 PM 39.9767 -77.9411 251° West 407 468 22,000  Level Cleveland Center
Thu 05:50:21 PM 39.9739 -78.0864 269° West 403 464 22,000 -242 Level Cleveland Center
Thu 05:51:23 PM 39.9781 -78.2294 272° West 400 460 21,500 -871 Descending Cleveland Center
Thu 05:52:25 PM 39.9825 -78.3831 272° West 378 435 20,200 -1,258 Descending Cleveland Center
Thu 05:53:27 PM 39.9850 -78.5117 271° West 365 420 18,900 -1,056 Descending Cleveland Center
Thu 05:54:30 PM 39.9889 -78.6408 272° West 362 417 18,000 -816 Descending Cleveland Center
Thu 05:55:32 PM 39.9908 -78.7650 271° West 347 399 17,200 -919 Descending Cleveland Center
Thu 05:56:34 PM 39.9953 -78.9089 272° West 337 388 16,100 -919 Descending Cleveland Center
Thu 05:57:36 PM 40.0200 -79.0208 286° West 336 387 15,300 -823 Descending Cleveland Center
Thu 05:58:38 PM 40.0489 -79.1333 289° West 331 381 14,400 -823 Descending Cleveland Center
Thu 05:59:40 PM 40.0792 -79.2442 290° West 328 377 13,600 -823 Descending Cleveland Center
Thu 06:00:42 PM 40.1064 -79.3558 288° West 327 376 12,700 -823 Descending Cleveland Center
Thu 06:01:44 PM 40.1333 -79.4678 288° West 327 376 11,900 -871 Descending Cleveland Center
Thu 06:02:46 PM 40.1781 -79.5864 296° West 310 357 10,900 -816 Descending Cleveland Center
Thu 06:03:49 PM 40.2308 -79.6594 313° West 281 323 10,200 -720 Descending Cleveland Center
Thu 06:04:51 PM 40.2825 -79.7342 312° West 281 323 9,400 -1,016 Descending Cleveland Center
Thu 06:05:53 PM 40.3333 -79.8081 312° West 277 319 8,100 -1,452 Descending Cleveland Center
Thu 06:06:55 PM 40.3808 -79.8769 312° West 261 300 6,400 -1,935 Descending Cleveland Center
Thu 06:07:57 PM 40.4611 -79.9278 334° Northwest 271 312 4,100 -1,113 Descending Cleveland Center
Thu 06:08:59 PM 40.4972 -79.9836 310° West 254 292 4,100 -48 Level Cleveland Center
Thu 06:10:01 PM 40.4831 -80.0436 253° West 201 231 4,000 -194 Descending Cleveland Center
Thu 06:11:03 PM 40.4825 -80.0950 269° West 165 190 3,700 -581 Descending Cleveland Center
Thu 06:12:05 PM 40.4908 -80.1433 283° West 146 168 2,800 -968 Descending Cleveland Center
Thu 06:13:07 PM 40.5014 -80.2003 284° West 141 162 1,700 -1,065 Descending Cleveland Center
Thu 06:15:00 PM 40.4833 -80.2167 270° West  Level FlightAware Approximate

Login

Don't have an account? Register now (free) for customized features, flight alerts, and more!